Аэропорт: Наримановка. Костанай

ICAO: UAUU

METAR:
2019-12-12 11:30:00
UAUU 121130Z 01007MPS 6000 -SHSN OVC016CB M03/M04 Q1009 R33/490140 NOSIG RMK QFE741/0989
METAR:
2019-12-12 08:00:00
TAF UAUU 120800Z 1209/1218 24005MPS 3100 -SHSNRA BR BKN006 BKN011CB TEMPO 1209/1215 33008MPS 0500 +SHSNRA BLSN BKN003 BKN011CB